TimeEDT,TemperatureF,Dew PointF,Humidity,Sea Level PressureIn,VisibilityMPH,Wind Direction,Wind SpeedMPH,Gust SpeedMPH,PrecipitationIn,Events,Conditions,WindDirDegrees,DateUTC
12:53 AM,55.0,48.0,77,30.10,10.0,NNW,6.9,-,N/A,,Clear,330,2013-08-14 04:53:00
1:53 AM,52.0,48.0,86,30.10,10.0,NNW,3.5,-,N/A,,Clear,330,2013-08-14 05:53:00
2:53 AM,52.0,46.9,83,30.11,10.0,NNW,3.5,-,N/A,,Clear,330,2013-08-14 06:53:00
3:53 AM,52.0,46.9,83,30.11,10.0,Calm,Calm,-,N/A,,Clear,0,2013-08-14 07:53:00
4:53 AM,50.0,46.0,86,30.12,10.0,Calm,Calm,-,N/A,,Clear,0,2013-08-14 08:53:00
5:53 AM,48.0,44.1,86,30.14,10.0,Calm,Calm,-,N/A,,Clear,0,2013-08-14 09:53:00
6:53 AM,48.0,44.1,86,30.16,10.0,Calm,Calm,-,N/A,,Clear,0,2013-08-14 10:53:00
7:53 AM,51.1,46.0,83,30.17,10.0,NW,4.6,-,N/A,,Clear,310,2013-08-14 11:53:00
8:53 AM,55.0,46.9,74,30.18,10.0,NNW,9.2,-,N/A,,Clear,340,2013-08-14 12:53:00
9:53 AM,60.1,48.9,67,30.19,10.0,North,10.4,-,N/A,,Clear,350,2013-08-14 13:53:00
10:53 AM,63.0,46.9,56,30.19,10.0,North,10.4,-,N/A,,Clear,360,2013-08-14 14:53:00
11:53 AM,66.0,46.9,50,30.20,10.0,NNE,8.1,-,N/A,,Partly Cloudy,20,2013-08-14 15:53:00
12:53 PM,66.9,46.0,47,30.19,10.0,North,10.4,-,N/A,,Scattered Clouds,350,2013-08-14 16:53:00
1:53 PM,68.0,46.9,47,30.18,10.0,North,10.4,-,N/A,,Mostly Cloudy,360,2013-08-14 17:53:00
2:53 PM,70.0,46.9,44,30.17,10.0,North,8.1,-,N/A,,Scattered Clouds,360,2013-08-14 18:53:00
3:53 PM,71.1,46.9,42,30.17,10.0,Variable,4.6,-,N/A,,Partly Cloudy,0,2013-08-14 19:53:00
4:53 PM,71.1,46.9,42,30.16,10.0,North,9.2,-,N/A,,Mostly Cloudy,10,2013-08-14 20:53:00
5:53 PM,71.1,46.0,41,30.16,10.0,North,3.5,-,N/A,,Partly Cloudy,10,2013-08-14 21:53:00
6:53 PM,68.0,46.9,47,30.16,10.0,East,3.5,-,N/A,,Overcast,80,2013-08-14 22:53:00
7:53 PM,68.0,46.0,45,30.15,10.0,Calm,Calm,-,N/A,,Clear,0,2013-08-14 23:53:00
8:53 PM,62.1,52.0,70,30.16,10.0,Calm,Calm,-,N/A,,Clear,0,2013-08-15 00:53:00
9:53 PM,57.0,50.0,77,30.17,10.0,Calm,Calm,-,N/A,,Clear,0,2013-08-15 01:53:00
10:53 PM,55.9,50.0,80,30.18,10.0,Calm,Calm,-,N/A,,Partly Cloudy,0,2013-08-15 02:53:00
11:53 PM,54.0,50.0,86,30.18,10.0,Calm,Calm,-,N/A,,Scattered Clouds,0,2013-08-15 03:53:00